Time;durP1;ratioP1;P1;durP2;ratioP2;P2;SDS_P1;SDS_P2;PMS_P1;PMS_P2;Temp;Humidity;BMP_temperature;BMP_pressure;BME280_temperature;BME280_humidity;BME280_pressure;Samples;Min_cycle;Max_cycle;Signal;HPM_P1;HPM_P2
2021/10/22 00:01:51;;;;;;;2.85;0.80;;;10.50;99.90;;;;;;5052799;28;20108;-76
2021/10/22 00:04:18;;;;;;;2.88;0.80;;;10.50;99.90;;;;;;5051755;28;20543;-76
2021/10/22 00:06:45;;;;;;;3.53;1.05;;;10.50;99.90;;;;;;5051672;28;20147;-76
2021/10/22 00:09:12;;;;;;;1.95;0.80;;;10.50;99.90;;;;;;5052831;28;20084;-77
2021/10/22 00:11:43;;;;;;;2.10;0.80;;;10.40;99.90;;;;;;5052344;28;20135;-77
2021/10/22 00:14:11;;;;;;;1.85;0.85;;;10.40;99.90;;;;;;5053500;28;20045;-76
2021/10/22 00:16:38;;;;;;;2.58;1.00;;;10.40;99.90;;;;;;5052662;28;20119;-77
2021/10/22 00:19:07;;;;;;;2.30;0.80;;;10.40;99.90;;;;;;5052408;28;20049;-77
2021/10/22 00:21:34;;;;;;;2.35;0.65;;;10.50;99.90;;;;;;5052692;28;20091;-78
2021/10/22 00:24:01;;;;;;;3.47;0.95;;;10.50;99.90;;;;;;5056551;28;20084;-77
2021/10/22 00:26:29;;;;;;;2.83;0.77;;;10.50;99.90;;;;;;5056073;28;20060;-79
2021/10/22 00:28:56;;;;;;;4.28;0.90;;;10.50;99.90;;;;;;5055818;28;20132;-76
2021/10/22 00:31:23;;;;;;;2.55;0.80;;;10.50;99.90;;;;;;5055555;28;20132;-76
2021/10/22 00:33:50;;;;;;;1.25;0.60;;;10.50;99.90;;;;;;5040243;28;20108;-76
2021/10/22 00:36:19;;;;;;;2.15;0.82;;;10.50;99.90;;;;;;5055771;28;20049;-78
2021/10/22 00:38:46;;;;;;;3.83;0.70;;;10.50;99.90;;;;;;5056568;28;20088;-76
2021/10/22 00:41:14;;;;;;;2.33;0.80;;;10.60;99.90;;;;;;5056729;28;20128;-75
2021/10/22 00:43:41;;;;;;;2.40;0.73;;;10.50;99.90;;;;;;5055575;28;20128;-76
2021/10/22 00:46:08;;;;;;;3.25;0.90;;;10.50;99.90;;;;;;5055254;28;20083;-77
2021/10/22 00:48:36;;;;;;;2.60;0.77;;;10.50;99.90;;;;;;5054266;28;20084;-77
2021/10/22 00:51:05;;;;;;;4.35;0.90;;;10.50;99.90;;;;;;5054775;28;20148;-78
2021/10/22 00:53:37;;;;;;;1.55;0.63;;;10.50;99.90;;;;;;5054689;28;20155;-78
2021/10/22 00:56:06;;;;;;;1.75;0.60;;;10.40;99.90;;;;;;5055054;28;20095;-78
2021/10/22 00:58:34;;;;;;;2.05;0.60;;;10.40;99.90;;;;;;5054920;28;20068;-78
2021/10/22 01:01:01;;;;;;;2.53;0.70;;;10.40;99.90;;;;;;5055625;28;20137;-76
2021/10/22 01:03:28;;;;;;;2.17;0.80;;;10.40;99.90;;;;;;5054623;28;20570;-78
2021/10/22 01:05:55;;;;;;;2.15;0.75;;;10.30;99.90;;;;;;5055468;28;20137;-79
2021/10/22 01:08:23;;;;;;;3.55;0.82;;;10.30;99.90;;;;;;5055199;28;20139;-79
2021/10/22 01:10:51;;;;;;;2.50;0.90;;;10.30;99.90;;;;;;5054965;28;20073;-79
2021/10/22 01:13:18;;;;;;;1.98;0.70;;;10.30;99.90;;;;;;5054491;28;20136;-76
2021/10/22 01:15:45;;;;;;;2.20;0.80;;;10.30;99.90;;;;;;5053521;28;20080;-78
2021/10/22 01:18:13;;;;;;;2.30;0.90;;;10.30;99.90;;;;;;5053405;28;20137;-78
2021/10/22 01:20:42;;;;;;;3.67;0.95;;;10.30;99.90;;;;;;5053861;28;20103;-78
2021/10/22 01:23:10;;;;;;;1.83;0.75;;;10.30;99.90;;;;;;5054034;28;20406;-77
2021/10/22 01:25:37;;;;;;;2.45;0.80;;;10.30;99.90;;;;;;5053863;28;20060;-79
2021/10/22 01:28:06;;;;;;;2.72;0.90;;;10.30;99.90;;;;;;5053944;28;20131;-76
2021/10/22 01:30:33;;;;;;;3.33;0.90;;;10.30;99.90;;;;;;5053150;28;20051;-77
2021/10/22 01:33:05;;;;;;;2.40;0.80;;;10.20;99.90;;;;;;5053726;28;20076;-76
2021/10/22 01:35:33;;;;;;;2.33;0.93;;;10.20;99.90;;;;;;5053654;28;20123;-79
2021/10/22 01:38:02;;;;;;;2.05;0.90;;;10.20;99.90;;;;;;5053711;28;20569;-76
2021/10/22 01:40:31;;;;;;;2.05;0.70;;;10.20;99.90;;;;;;5053536;28;20399;-78
2021/10/22 01:42:58;;;;;;;2.80;0.80;;;10.20;99.90;;;;;;5053682;28;20056;-78
2021/10/22 01:45:25;;;;;;;2.45;0.85;;;10.20;99.90;;;;;;5053275;28;20135;-78
2021/10/22 01:47:52;;;;;;;4.43;1.00;;;10.20;99.90;;;;;;5053719;28;20388;-78
2021/10/22 01:50:19;;;;;;;2.80;1.00;;;10.10;99.90;;;;;;5053816;28;20470;-77
2021/10/22 01:52:46;;;;;;;1.85;1.00;;;10.10;99.90;;;;;;5053697;28;20076;-78
2021/10/22 01:55:15;;;;;;;3.97;1.00;;;10.00;99.90;;;;;;5053496;28;20052;-79
2021/10/22 01:57:42;;;;;;;2.28;0.73;;;10.00;99.90;;;;;;5054155;28;20136;-78
2021/10/22 02:00:11;;;;;;;3.60;0.90;;;9.90;99.90;;;;;;5053179;28;20136;-78
2021/10/22 02:02:40;;;;;;;2.38;0.80;;;9.90;99.90;;;;;;5053373;28;20135;-78
2021/10/22 02:05:08;;;;;;;3.53;0.80;;;9.90;99.90;;;;;;5054351;28;20056;-79
2021/10/22 02:07:35;;;;;;;1.77;0.80;;;9.90;99.90;;;;;;5054673;28;20124;-77
2021/10/22 02:10:04;;;;;;;3.17;1.02;;;9.80;99.90;;;;;;5054411;28;20510;-76
2021/10/22 02:12:32;;;;;;;2.95;0.93;;;9.80;99.90;;;;;;5054807;28;20499;-79
2021/10/22 02:14:59;;;;;;;3.05;0.82;;;9.80;99.90;;;;;;5053210;28;20128;-77
2021/10/22 02:17:26;;;;;;;3.08;1.10;;;9.70;99.90;;;;;;5052550;28;20056;-77
2021/10/22 02:19:54;;;;;;;4.72;1.20;;;9.80;99.90;;;;;;5052999;28;20171;-79
2021/10/22 02:22:21;;;;;;;2.53;0.70;;;9.80;99.90;;;;;;5052858;28;20077;-77
2021/10/22 02:24:48;;;;;;;2.47;0.90;;;9.70;99.90;;;;;;5052471;28;20129;-81
2021/10/22 02:27:15;;;;;;;5.85;1.10;;;9.70;99.90;;;;;;5053643;28;20781;-75
2021/10/22 02:29:43;;;;;;;4.38;0.93;;;9.70;99.90;;;;;;5052087;28;20931;-79
2021/10/22 02:32:11;;;;;;;2.65;0.90;;;9.70;99.90;;;;;;5052658;28;20144;-80
2021/10/22 02:34:38;;;;;;;3.28;1.00;;;9.70;99.90;;;;;;5053061;28;20459;-79
2021/10/22 02:37:05;;;;;;;2.28;0.90;;;9.70;99.90;;;;;;5052417;28;20482;-78
2021/10/22 02:39:33;;;;;;;3.70;1.08;;;9.70;99.90;;;;;;5052753;28;20136;-78
2021/10/22 02:42:03;;;;;;;3.13;1.05;;;9.70;99.90;;;;;;5052798;28;20049;-78
2021/10/22 02:44:30;;;;;;;3.70;1.00;;;9.70;99.90;;;;;;5051823;28;20052;-77
2021/10/22 02:46:58;;;;;;;3.65;1.05;;;9.70;99.90;;;;;;5052689;28;20087;-78
2021/10/22 02:49:26;;;;;;;4.75;1.10;;;9.60;99.90;;;;;;5052378;28;20132;-80
2021/10/22 02:51:55;;;;;;;3.28;0.95;;;9.60;99.90;;;;;;5052728;28;20059;-80
2021/10/22 02:54:22;;;;;;;4.43;1.08;;;9.60;99.90;;;;;;5053048;28;20140;-79
2021/10/22 02:56:49;;;;;;;2.75;1.00;;;9.60;99.90;;;;;;5064148;28;20135;-76
2021/10/22 02:59:16;;;;;;;3.35;0.88;;;9.60;99.90;;;;;;5056521;28;20135;-79
2021/10/22 03:01:43;;;;;;;3.95;1.00;;;9.70;99.90;;;;;;5051585;28;20484;-79
2021/10/22 03:04:12;;;;;;;3.95;1.10;;;9.70;99.90;;;;;;5049696;28;20092;-79
2021/10/22 03:06:39;;;;;;;2.95;0.95;;;9.70;99.90;;;;;;5050161;28;20073;-78
2021/10/22 03:09:06;;;;;;;3.90;0.98;;;9.70;99.90;;;;;;5048285;28;20081;-76
2021/10/22 03:11:34;;;;;;;3.35;1.13;;;9.70;99.90;;;;;;5048473;28;20136;-79
2021/10/22 03:14:01;;;;;;;3.15;0.80;;;9.80;99.90;;;;;;5049215;28;20049;-78
2021/10/22 03:16:28;;;;;;;3.42;0.90;;;9.80;99.90;;;;;;5048604;28;20144;-79
2021/10/22 03:18:55;;;;;;;3.22;0.80;;;9.80;99.90;;;;;;5048707;28;20136;-76
2021/10/22 03:21:23;;;;;;;3.40;1.20;;;9.80;99.90;;;;;;5048454;28;20128;-77
2021/10/22 03:23:55;;;;;;;3.67;1.10;;;9.80;99.90;;;;;;5033044;28;20051;-77
2021/10/22 03:26:22;;;;;;;2.90;1.00;;;9.70;99.90;;;;;;5048669;28;20045;-78
2021/10/22 03:28:49;;;;;;;3.92;1.08;;;9.70;99.90;;;;;;5048825;28;20059;-78
2021/10/22 03:31:16;;;;;;;3.42;1.15;;;9.70;99.90;;;;;;5048760;28;20137;-78
2021/10/22 03:33:43;;;;;;;3.95;1.10;;;9.60;99.90;;;;;;5047716;28;20049;-79
2021/10/22 03:36:10;;;;;;;3.97;1.13;;;9.60;99.90;;;;;;5048462;28;20573;-78
2021/10/22 03:38:39;;;;;;;4.65;1.30;;;9.60;99.90;;;;;;5048854;28;20135;-78
2021/10/22 03:41:07;;;;;;;4.20;1.20;;;9.50;99.90;;;;;;5048512;28;20073;-79
2021/10/22 03:43:35;;;;;;;3.58;1.00;;;9.50;99.90;;;;;;5049272;28;20489;-79
2021/10/22 03:46:03;;;;;;;3.60;1.20;;;9.40;99.90;;;;;;5049058;28;20080;-77
2021/10/22 03:48:30;;;;;;;4.28;1.10;;;9.40;99.90;;;;;;5048607;28;20125;-78
2021/10/22 03:50:57;;;;;;;4.35;1.23;;;9.40;99.90;;;;;;5048941;28;20075;-80
2021/10/22 03:53:24;;;;;;;4.65;1.23;;;9.30;99.90;;;;;;5047776;28;20892;-80
2021/10/22 03:55:53;;;;;;;4.45;1.20;;;9.30;99.90;;;;;;5048271;28;20148;-79
2021/10/22 03:58:20;;;;;;;5.63;1.30;;;9.30;99.90;;;;;;5051315;28;20411;-78
2021/10/22 04:00:48;;;;;;;5.20;1.40;;;9.20;99.90;;;;;;5052962;28;20079;-79
2021/10/22 04:03:15;;;;;;;4.72;1.17;;;9.10;99.90;;;;;;5055698;28;20132;-77
2021/10/22 04:05:43;;;;;;;4.63;1.30;;;9.10;99.90;;;;;;5055746;28;20132;-78
2021/10/22 04:08:10;;;;;;;5.07;1.05;;;9.00;99.90;;;;;;5055168;28;20061;-79
2021/10/22 04:10:41;;;;;;;4.13;0.95;;;9.00;99.90;;;;;;5055748;28;20060;-76
2021/10/22 04:13:10;;;;;;;5.35;1.33;;;8.90;99.90;;;;;;5055500;28;20073;-78
2021/10/22 04:15:38;;;;;;;3.88;1.05;;;8.90;99.90;;;;;;5055373;28;20104;-79
2021/10/22 04:18:05;;;;;;;4.72;1.20;;;8.80;99.90;;;;;;5055332;28;20128;-77
2021/10/22 04:20:33;;;;;;;4.60;1.25;;;8.80;99.90;;;;;;5055442;28;20108;-81
2021/10/22 04:23:00;;;;;;;6.07;1.00;;;8.80;99.90;;;;;;5054767;28;20072;-79
2021/10/22 04:25:28;;;;;;;4.93;1.13;;;8.80;99.90;;;;;;5055154;28;20044;-80
2021/10/22 04:27:55;;;;;;;4.53;1.40;;;8.70;99.90;;;;;;5055415;28;20107;-78
2021/10/22 04:30:24;;;;;;;5.13;1.30;;;8.70;99.90;;;;;;5055548;28;20127;-77
2021/10/22 04:32:51;;;;;;;6.18;1.23;;;8.70;99.90;;;;;;5055464;28;20072;-79
2021/10/22 04:35:18;;;;;;;3.78;1.42;;;8.70;99.90;;;;;;5055253;28;20136;-76
2021/10/22 04:37:50;;;;;;;4.88;1.30;;;8.60;99.90;;;;;;5054750;28;20396;-78
2021/10/22 04:40:32;;;;;;;4.05;1.00;;;8.60;99.90;;;;;;5055106;28;20053;-77
2021/10/22 04:43:02;;;;;;;6.97;1.20;;;8.60;99.90;;;;;;5055367;28;20044;-76
2021/10/22 04:45:34;;;;;;;4.10;1.60;;;8.60;99.90;;;;;;5055401;28;20142;-76
2021/10/22 04:48:03;;;;;;;5.10;1.33;;;8.60;99.90;;;;;;5055131;28;20128;-79
2021/10/22 04:50:31;;;;;;;5.18;1.42;;;8.60;99.90;;;;;;5054731;28;20160;-78
2021/10/22 04:52:58;;;;;;;4.97;1.58;;;8.60;99.90;;;;;;5054712;28;20122;-78
2021/10/22 04:55:29;;;;;;;6.05;1.33;;;8.60;99.90;;;;;;5055144;28;20123;-79
2021/10/22 04:57:56;;;;;;;4.95;1.27;;;8.60;99.90;;;;;;5055258;28;20054;-81
2021/10/22 05:00:23;;;;;;;5.78;1.30;;;8.60;99.90;;;;;;5055116;28;20104;-77
2021/10/22 05:02:52;;;;;;;3.25;1.23;;;8.60;99.90;;;;;;5054281;28;20207;-77
2021/10/22 05:05:19;;;;;;;5.40;1.35;;;8.60;99.90;;;;;;5054886;28;20136;-77
2021/10/22 05:07:47;;;;;;;4.00;1.30;;;8.60;99.90;;;;;;5054413;28;20081;-78
2021/10/22 05:10:14;;;;;;;3.58;1.40;;;8.60;99.90;;;;;;5056585;28;20041;-80
2021/10/22 05:12:41;;;;;;;7.20;1.77;;;8.60;99.90;;;;;;5054202;28;20053;-77
2021/10/22 05:15:10;;;;;;;8.13;1.98;;;8.60;99.90;;;;;;5054994;28;20137;-79
2021/10/22 05:17:38;;;;;;;3.85;1.50;;;8.60;99.90;;;;;;5054808;28;20450;-79
2021/10/22 05:20:12;;;;;;;7.15;1.60;;;8.60;99.90;;;;;;5066475;28;20135;-78
2021/10/22 05:22:39;;;;;;;5.55;1.30;;;8.60;99.90;;;;;;5074319;28;20092;-79
2021/10/22 05:25:09;;;;;;;6.85;1.42;;;8.50;99.90;;;;;;5074871;28;20088;-79
2021/10/22 05:27:37;;;;;;;6.18;1.55;;;8.50;99.90;;;;;;5074873;28;20051;-78
2021/10/22 05:30:05;;;;;;;4.78;1.40;;;8.50;99.90;;;;;;5074163;28;20052;-78
2021/10/22 05:32:33;;;;;;;3.97;1.50;;;8.50;99.90;;;;;;5074048;28;20080;-79
2021/10/22 05:35:00;;;;;;;3.40;1.10;;;8.40;99.90;;;;;;5073961;28;20136;-80
2021/10/22 05:37:28;;;;;;;3.58;1.25;;;8.40;99.90;;;;;;5073535;28;20158;-79
2021/10/22 05:39:57;;;;;;;6.63;1.80;;;8.30;99.90;;;;;;5073361;28;20052;-79
2021/10/22 05:42:24;;;;;;;4.97;1.70;;;8.30;99.90;;;;;;5073504;28;20135;-77
2021/10/22 05:44:51;;;;;;;4.68;1.20;;;8.20;99.90;;;;;;5073590;28;20660;-78
2021/10/22 05:47:18;;;;;;;7.80;1.30;;;8.20;99.90;;;;;;5073487;28;20573;-78
2021/10/22 05:49:45;;;;;;;3.28;1.17;;;8.10;99.90;;;;;;5073603;28;20095;-79
2021/10/22 05:52:12;;;;;;;4.80;1.40;;;8.10;99.90;;;;;;5073272;28;20090;-79
2021/10/22 05:54:41;;;;;;;8.20;1.58;;;8.10;99.90;;;;;;5073346;28;20124;-81
2021/10/22 05:57:08;;;;;;;5.53;1.30;;;8.10;99.90;;;;;;5073275;28;20128;-75
2021/10/22 05:59:35;;;;;;;4.95;1.50;;;8.10;99.90;;;;;;5073473;28;20139;-78
2021/10/22 06:02:02;;;;;;;4.13;1.00;;;8.10;99.90;;;;;;5073701;28;20080;-79
2021/10/22 06:04:29;;;;;;;4.25;1.23;;;8.10;99.90;;;;;;5073068;28;20106;-78
2021/10/22 06:06:56;;;;;;;7.60;1.20;;;8.00;99.90;;;;;;5072823;28;20476;-80
2021/10/22 06:09:23;;;;;;;4.00;1.50;;;8.00;99.90;;;;;;5073086;28;20152;-80
2021/10/22 06:11:52;;;;;;;7.30;1.83;;;8.00;99.90;;;;;;5072663;28;20052;-77
2021/10/22 06:14:19;;;;;;;6.85;2.08;;;8.00;99.90;;;;;;5072866;28;20375;-80
2021/10/22 06:16:46;;;;;;;6.57;1.45;;;7.90;99.90;;;;;;5072778;28;20127;-75
2021/10/22 06:19:21;;;;;;;4.43;1.60;;;7.90;99.90;;;;;;5072025;28;20174;-78
2021/10/22 06:21:55;;;;;;;5.05;1.40;;;7.90;99.90;;;;;;5072724;28;20055;-79
2021/10/22 06:24:23;;;;;;;3.95;1.38;;;7.90;99.90;;;;;;5072847;28;20501;-79
2021/10/22 06:26:51;;;;;;;6.18;1.67;;;7.80;99.90;;;;;;5072952;28;20048;-77
2021/10/22 06:29:18;;;;;;;5.03;1.60;;;7.80;99.90;;;;;;5072924;28;20075;-79
2021/10/22 06:31:47;;;;;;;4.72;1.52;;;7.80;99.90;;;;;;5072609;28;20121;-78
2021/10/22 06:34:14;;;;;;;4.55;1.42;;;7.80;99.90;;;;;;5072434;28;20041;-77
2021/10/22 06:36:41;;;;;;;5.70;2.20;;;7.70;99.90;;;;;;5072605;28;20132;-79
2021/10/22 06:39:08;;;;;;;6.28;1.80;;;7.70;99.90;;;;;;5072520;28;20128;-78
2021/10/22 06:41:37;;;;;;;7.20;1.50;;;7.70;99.90;;;;;;5072475;28;20135;-78
2021/10/22 06:44:06;;;;;;;4.05;1.55;;;7.60;99.90;;;;;;5072368;28;20063;-75
2021/10/22 06:46:33;;;;;;;5.57;1.90;;;7.70;99.90;;;;;;5072430;28;20060;-80
2021/10/22 06:49:01;;;;;;;4.30;1.85;;;7.60;99.90;;;;;;5072283;28;20087;-81
2021/10/22 06:51:28;;;;;;;6.63;1.70;;;7.60;99.90;;;;;;5072228;28;20576;-80
2021/10/22 06:53:55;;;;;;;5.95;1.73;;;7.70;99.90;;;;;;5073883;28;20135;-78
2021/10/22 06:56:22;;;;;;;5.97;1.65;;;7.70;99.90;;;;;;5072423;28;20059;-78
2021/10/22 06:58:49;;;;;;;7.68;1.95;;;7.70;99.90;;;;;;5072248;28;20139;-78
2021/10/22 07:01:17;;;;;;;8.10;1.70;;;7.70;99.90;;;;;;5072044;28;20147;-78
2021/10/22 07:03:44;;;;;;;5.15;1.40;;;7.80;99.90;;;;;;5072138;28;20044;-79
2021/10/22 07:08:58;;;;;;;7.35;1.50;;;7.80;99.90;;;;;;5072132;28;20430;-79
2021/10/22 07:11:26;;;;;;;9.27;1.70;;;7.80;99.90;;;;;;5072087;28;20048;-79
2021/10/22 07:13:54;;;;;;;6.65;1.60;;;7.80;99.90;;;;;;5072289;28;20094;-81
2021/10/22 07:16:26;;;;;;;7.72;1.60;;;7.80;99.90;;;;;;5071952;28;20044;-80
2021/10/22 07:18:54;;;;;;;4.75;1.75;;;7.80;99.90;;;;;;5071636;28;20064;-76
2021/10/22 07:21:21;;;;;;;4.32;1.63;;;7.80;99.90;;;;;;5071710;28;20048;-78
2021/10/22 07:23:50;;;;;;;6.15;1.88;;;7.80;99.90;;;;;;5072057;28;20057;-78
2021/10/22 07:26:20;;;;;;;8.63;2.25;;;7.80;99.90;;;;;;5071702;28;20083;-79
2021/10/22 07:28:48;;;;;;;8.95;2.20;;;7.90;99.90;;;;;;5071895;28;20067;-79
2021/10/22 07:31:15;;;;;;;8.55;2.00;;;7.90;99.90;;;;;;5073318;28;20056;-78
2021/10/22 07:33:45;;;;;;;7.82;2.00;;;7.90;99.90;;;;;;5075800;28;20148;-77
2021/10/22 07:36:14;;;;;;;7.35;1.70;;;7.90;99.90;;;;;;5075695;28;20410;-78
2021/10/22 07:38:43;;;;;;;8.52;2.40;;;7.90;99.90;;;;;;5076018;28;20135;-78
2021/10/22 07:41:11;;;;;;;7.15;1.85;;;8.00;99.90;;;;;;5075616;28;20048;-79
2021/10/22 07:43:38;;;;;;;10.57;2.85;;;8.00;99.90;;;;;;5075916;28;20127;-78
2021/10/22 07:46:07;;;;;;;8.75;2.20;;;8.00;99.90;;;;;;5075484;28;20504;-79
2021/10/22 07:48:35;;;;;;;7.32;1.90;;;8.00;99.90;;;;;;5075717;28;20060;-80
2021/10/22 07:51:04;;;;;;;10.23;2.33;;;8.00;99.90;;;;;;5075736;28;20072;-78
2021/10/22 07:53:31;;;;;;;7.97;2.10;;;8.00;99.90;;;;;;5075540;28;20135;-78
2021/10/22 07:55:58;;;;;;;6.03;2.13;;;8.00;99.90;;;;;;5075546;28;20083;-79
2021/10/22 07:58:25;;;;;;;7.72;2.13;;;8.10;99.90;;;;;;5066299;28;20130;-79
2021/10/22 08:00:53;;;;;;;7.38;2.10;;;8.10;99.90;;;;;;5055111;28;20144;-79
2021/10/22 08:03:20;;;;;;;7.38;2.45;;;8.10;99.90;;;;;;5055465;28;20045;-76
2021/10/22 08:05:47;;;;;;;9.27;2.70;;;8.00;99.90;;;;;;5055628;28;20128;-79
2021/10/22 08:08:16;;;;;;;9.65;2.90;;;8.10;99.90;;;;;;5055164;28;20137;-79
2021/10/22 08:10:43;;;;;;;8.48;2.40;;;8.10;99.90;;;;;;5055426;28;20140;-77
2021/10/22 08:13:11;;;;;;;9.02;2.92;;;8.10;99.90;;;;;;5055933;28;20048;-78
2021/10/22 08:15:41;;;;;;;8.32;2.50;;;8.10;99.90;;;;;;5054779;28;20072;-75
2021/10/22 08:18:09;;;;;;;7.20;1.85;;;8.10;99.90;;;;;;5055257;28;20049;-81
2021/10/22 08:20:37;;;;;;;8.55;2.17;;;8.10;99.90;;;;;;5054856;28;20052;-81
2021/10/22 08:23:05;;;;;;;7.35;2.08;;;8.20;99.90;;;;;;5054853;28;20041;-81
2021/10/22 08:25:34;;;;;;;7.72;2.05;;;8.20;99.90;;;;;;5055116;28;20068;-80
2021/10/22 08:28:01;;;;;;;8.23;2.30;;;8.30;99.90;;;;;;5054619;28;20625;-80
2021/10/22 08:30:29;;;;;;;8.40;2.25;;;8.30;99.90;;;;;;5054567;28;20478;-79
2021/10/22 08:32:57;;;;;;;8.07;2.33;;;8.30;99.90;;;;;;5053711;28;20078;-79
2021/10/22 08:35:28;;;;;;;6.28;1.80;;;8.30;99.90;;;;;;5054409;28;20083;-78
2021/10/22 08:37:56;;;;;;;8.50;2.30;;;8.30;99.90;;;;;;5054708;28;20098;-78
2021/10/22 08:40:24;;;;;;;7.28;1.70;;;8.30;99.90;;;;;;5054100;28;20128;-79
2021/10/22 08:42:52;;;;;;;8.70;2.10;;;8.40;99.90;;;;;;5049749;28;20133;-79
2021/10/22 08:45:20;;;;;;;7.82;1.95;;;8.40;99.90;;;;;;5054361;28;20083;-80
2021/10/22 08:47:48;;;;;;;6.47;1.88;;;8.50;99.90;;;;;;5051995;28;21005;-82
2021/10/22 08:50:19;;;;;;;10.25;2.10;;;8.60;99.90;;;;;;5052140;28;20428;-75
2021/10/22 08:52:48;;;;;;;7.15;1.90;;;8.60;99.90;;;;;;5051756;28;20059;-77
2021/10/22 08:55:17;;;;;;;8.23;1.77;;;8.60;99.90;;;;;;5051118;28;20139;-80
2021/10/22 08:57:46;;;;;;;6.55;1.75;;;8.70;99.90;;;;;;5050567;28;20570;-79
2021/10/22 09:00:18;;;;;;;9.07;1.80;;;8.80;99.90;;;;;;5051367;28;20136;-79
2021/10/22 09:02:47;;;;;;;11.82;1.58;;;8.80;99.90;;;;;;5051177;28;20127;-79
2021/10/22 09:05:18;;;;;;;4.70;1.60;;;8.80;99.90;;;;;;5051303;28;20053;-79
2021/10/22 09:07:48;;;;;;;6.78;1.52;;;8.90;99.80;;;;;;5050577;28;20577;-79
2021/10/22 09:10:19;;;;;;;5.93;1.55;;;8.90;99.30;;;;;;5051222;28;20549;-77
2021/10/22 09:12:50;;;;;;;9.13;1.63;;;9.00;99.00;;;;;;5051097;28;20051;-80
2021/10/22 09:15:23;;;;;;;8.13;1.63;;;9.00;98.00;;;;;;5051311;28;20049;-79
2021/10/22 09:17:51;;;;;;;11.23;2.15;;;9.00;96.80;;;;;;5051229;28;20073;-79
2021/10/22 09:20:19;;;;;;;9.18;1.92;;;9.10;96.60;;;;;;5051175;28;20140;-79
2021/10/22 09:22:53;;;;;;;6.65;1.58;;;9.10;96.00;;;;;;5049044;28;20136;-78
2021/10/22 09:25:23;;;;;;;6.70;1.63;;;9.20;95.90;;;;;;5049470;28;20125;-79
2021/10/22 09:27:56;;;;;;;7.53;1.67;;;9.20;94.50;;;;;;5048485;28;20049;-80
2021/10/22 09:30:33;;;;;;;5.18;1.50;;;9.30;94.30;;;;;;5049642;28;20053;-80
2021/10/22 09:33:04;;;;;;;5.38;1.25;;;9.30;94.10;;;;;;5046891;28;20048;-79
2021/10/22 09:35:43;;;;;;;6.47;1.58;;;9.30;94.70;;;;;;5040950;28;20103;-80
2021/10/22 09:38:15;;;;;;;7.10;1.63;;;9.40;95.00;;;;;;5050174;28;20068;-80
2021/10/22 09:40:43;;;;;;;7.85;1.75;;;9.50;94.70;;;;;;5040404;28;20076;-80
2021/10/22 09:43:24;;;;;;;10.73;1.92;;;9.50;93.50;;;;;;5050233;28;20053;-84
2021/10/22 09:46:09;;;;;;;7.93;1.70;;;9.50;92.90;;;;;;5049552;28;20088;-81
2021/10/22 09:48:41;;;;;;;8.07;1.60;;;9.50;92.70;;;;;;5048742;28;20045;-79
2021/10/22 09:51:28;;;;;;;8.65;1.88;;;9.50;92.70;;;;;;5050309;28;20137;-80
2021/10/22 09:53:58;;;;;;;7.95;1.50;;;9.50;92.70;;;;;;5048459;28;20056;-80
2021/10/22 09:56:27;;;;;;;8.75;1.60;;;9.60;93.10;;;;;;5049212;28;20052;-79
2021/10/22 09:58:58;;;;;;;7.32;1.58;;;9.60;92.70;;;;;;5052811;28;20084;-79
2021/10/22 10:01:33;;;;;;;10.25;2.05;;;9.60;92.40;;;;;;5052905;28;20049;-80
2021/10/22 10:04:01;;;;;;;6.20;1.63;;;9.60;91.90;;;;;;5053145;28;20124;-81
2021/10/22 10:06:31;;;;;;;9.32;1.60;;;9.60;92.00;;;;;;5052940;28;20049;-80
2021/10/22 10:08:59;;;;;;;11.23;1.65;;;9.60;92.60;;;;;;5052941;28;20131;-79
2021/10/22 10:11:27;;;;;;;7.28;1.50;;;9.60;92.90;;;;;;5053242;28;20052;-80
2021/10/22 10:13:55;;;;;;;9.95;1.73;;;9.70;92.70;;;;;;5053349;28;20200;-81
2021/10/22 10:16:24;;;;;;;10.00;1.63;;;9.70;92.30;;;;;;5053321;28;20048;-79
2021/10/22 10:18:56;;;;;;;8.13;1.63;;;9.80;92.60;;;;;;5052612;28;20461;-79
2021/10/22 10:21:25;;;;;;;8.52;1.88;;;9.80;92.30;;;;;;5053104;28;20487;-79
2021/10/22 10:23:55;;;;;;;9.75;1.60;;;9.80;91.30;;;;;;5053047;28;20131;-80
2021/10/22 10:26:27;;;;;;;7.70;1.52;;;9.90;90.80;;;;;;5052917;28;20054;-80
2021/10/22 10:28:57;;;;;;;8.05;1.30;;;9.80;90.40;;;;;;5054134;28;20682;-79
2021/10/22 10:31:38;;;;;;;7.05;1.52;;;9.80;90.40;;;;;;5057726;28;20076;-80
2021/10/22 10:34:48;;;;;;;6.07;1.38;;;9.80;90.10;;;;;;5053493;28;20479;-81
2021/10/22 10:37:34;;;;;;;7.03;1.40;;;9.90;90.10;;;;;;5053315;28;20048;-78
2021/10/22 10:40:15;;;;;;;6.28;1.33;;;9.90;89.50;;;;;;5053098;28;20083;-80
2021/10/22 10:42:46;;;;;;;6.88;1.58;;;9.90;89.80;;;;;;5052506;28;20057;-79
2021/10/22 10:45:42;;;;;;;7.30;1.30;;;9.90;89.40;;;;;;5052940;28;20102;-79
2021/10/22 10:48:14;;;;;;;7.80;1.40;;;10.00;88.40;;;;;;5052320;28;20067;-80
2021/10/22 10:50:48;;;;;;;6.53;1.23;;;10.00;87.20;;;;;;5052369;28;20048;-80
2021/10/22 10:53:18;;;;;;;;;;;10.00;87.10;;;;;;5051799;28;20053;-81
2021/10/22 10:55:47;;;;;;;6.05;1.33;;;10.10;86.80;;;;;;5052033;28;19927;-79
2021/10/22 10:58:21;;;;;;;5.40;1.30;;;10.10;87.80;;;;;;5051960;28;20139;-79
2021/10/22 11:00:57;;;;;;;6.72;1.40;;;10.20;86.40;;;;;;5052053;28;20091;-78
2021/10/22 11:03:28;;;;;;;7.43;1.30;;;10.20;86.00;;;;;;5052148;28;20060;-80
2021/10/22 11:06:07;;;;;;;6.75;1.35;;;10.30;85.10;;;;;;5051804;28;20045;-80
2021/10/22 11:08:53;;;;;;;5.97;1.30;;;10.40;85.50;;;;;;5052096;28;20457;-79
2021/10/22 11:11:32;;;;;;;4.53;1.33;;;10.50;85.90;;;;;;5052225;28;20095;-79
2021/10/22 11:14:19;;;;;;;5.72;1.20;;;10.50;85.20;;;;;;5052473;28;20041;-79
2021/10/22 11:16:59;;;;;;;6.82;1.23;;;10.60;86.00;;;;;;5052190;28;20490;-79
2021/10/22 11:19:35;;;;;;;4.82;1.23;;;10.70;84.90;;;;;;5052451;28;20132;-80
2021/10/22 11:22:10;;;;;;;4.30;0.98;;;10.70;79.80;;;;;;5051736;28;20132;-80
2021/10/22 11:24:40;;;;;;;4.05;1.10;;;10.70;77.10;;;;;;5052006;28;20080;-81
2021/10/22 11:27:09;;;;;;;4.65;1.10;;;10.70;75.40;;;;;;5052654;28;20476;-80
2021/10/22 11:29:39;;;;;;;4.90;1.33;;;10.80;76.30;;;;;;5052501;28;20056;-80
2021/10/22 11:32:12;;;;;;;4.38;1.10;;;10.80;76.40;;;;;;5052468;28;20087;-80
2021/10/22 11:34:42;;;;;;;5.75;1.00;;;11.00;76.80;;;;;;5052436;28;20140;-78
2021/10/22 11:37:15;;;;;;;6.50;1.10;;;11.00;77.30;;;;;;5052440;28;20049;-78
2021/10/22 11:39:44;;;;;;;5.50;1.00;;;11.10;75.60;;;;;;5053539;28;20045;-80
2021/10/22 11:42:15;;;;;;;8.48;1.58;;;11.10;75.80;;;;;;5052267;28;20098;-81
2021/10/22 11:44:49;;;;;;;5.47;1.30;;;11.20;74.80;;;;;;5052924;28;20541;-81
2021/10/22 11:47:16;;;;;;;5.55;1.15;;;11.20;75.60;;;;;;5051947;28;20065;-80
2021/10/22 11:49:43;;;;;;;6.75;1.27;;;11.30;74.10;;;;;;5052108;28;20135;-80
2021/10/22 11:52:16;;;;;;;5.25;1.15;;;11.30;72.10;;;;;;5051816;28;20048;-79
2021/10/22 11:54:47;;;;;;;5.03;1.15;;;11.50;72.50;;;;;;5051785;28;20135;-80
2021/10/22 11:57:17;;;;;;;4.85;1.17;;;11.50;69.80;;;;;;5051646;28;20462;-79
2021/10/22 11:59:53;;;;;;;3.10;0.85;;;11.60;66.70;;;;;;5052296;28;20041;-78
2021/10/22 12:02:22;;;;;;;3.83;0.75;;;11.70;64.10;;;;;;5051868;28;20156;-78
2021/10/22 12:04:58;;;;;;;3.65;0.90;;;11.70;63.10;;;;;;5052141;28;20519;-81
2021/10/22 12:07:32;;;;;;;3.05;0.77;;;11.80;58.40;;;;;;5051911;28;20076;-80
2021/10/22 12:10:00;;;;;;;4.30;1.25;;;11.90;58.10;;;;;;5052154;28;20041;-80
2021/10/22 12:12:35;;;;;;;3.30;0.60;;;11.90;59.50;;;;;;5051815;28;20095;-79
2021/10/22 12:15:02;;;;;;;4.00;0.80;;;12.00;55.90;;;;;;5052093;28;20560;-79
2021/10/22 12:17:30;;;;;;;5.43;0.88;;;12.00;56.20;;;;;;5052150;28;20554;-80
2021/10/22 12:20:03;;;;;;;3.00;0.73;;;12.10;55.80;;;;;;5058453;28;20104;-81
2021/10/22 12:22:37;;;;;;;3.72;0.85;;;12.20;56.20;;;;;;5055682;28;20053;-78
2021/10/22 12:25:14;;;;;;;4.05;0.82;;;12.20;56.10;;;;;;5055632;28;20143;-80
2021/10/22 12:27:48;;;;;;;5.80;0.90;;;12.40;56.50;;;;;;5055220;28;20139;-79
2021/10/22 12:30:16;;;;;;;3.85;0.80;;;12.40;53.20;;;;;;5055271;28;20053;-81
2021/10/22 12:32:47;;;;;;;3.65;1.00;;;12.40;51.40;;;;;;5055298;28;20049;-80
2021/10/22 12:35:20;;;;;;;4.65;0.77;;;12.50;52.20;;;;;;5052163;28;20087;-80
2021/10/22 12:37:59;;;;;;;4.20;0.98;;;12.60;53.70;;;;;;5052141;28;20049;-77
2021/10/22 12:40:29;;;;;;;3.35;0.75;;;12.70;55.50;;;;;;5050749;28;20114;-80
2021/10/22 12:43:25;;;;;;;2.92;0.70;;;12.90;54.00;;;;;;5052230;28;20068;-79
2021/10/22 12:46:03;;;;;;;3.72;0.90;;;13.00;51.20;;;;;;5039076;28;20050;-78
2021/10/22 12:48:34;;;;;;;3.25;0.85;;;13.10;51.70;;;;;;5043006;28;20124;-80
2021/10/22 12:51:07;;;;;;;3.80;0.80;;;13.10;52.10;;;;;;5051700;28;20089;-77
2021/10/22 12:53:39;;;;;;;4.55;0.88;;;13.20;49.90;;;;;;5052039;28;20386;-77
2021/10/22 12:56:12;;;;;;;4.45;1.00;;;13.20;51.20;;;;;;5051303;28;20490;-78
2021/10/22 12:58:40;;;;;;;2.85;0.80;;;13.30;50.60;;;;;;5051560;28;20052;-77
2021/10/22 13:01:14;;;;;;;4.50;0.90;;;13.40;50.50;;;;;;5050958;28;20095;-77
2021/10/22 13:03:45;;;;;;;3.90;0.80;;;13.50;49.60;;;;;;5036744;28;20414;-79
2021/10/22 13:06:30;;;;;;;4.80;1.05;;;13.60;49.10;;;;;;5063097;28;20562;-79
2021/10/22 13:09:33;;;;;;;4.18;1.00;;;13.80;49.80;;;;;;5045219;28;20096;-79